createdAt,value
2022-09-03T00:00:04.952Z,2.38
2022-09-03T00:03:28.838Z,2.40
2022-09-03T00:06:36.764Z,2.33
2022-09-03T00:09:47.244Z,2.13
2022-09-03T00:12:54.152Z,2.40
2022-09-03T00:15:57.975Z,2.63
2022-09-03T00:19:03.280Z,2.83
2022-09-03T00:22:15.319Z,2.45
2022-09-03T00:25:26.751Z,2.30
2022-09-03T00:28:41.674Z,2.63
2022-09-03T00:31:58.118Z,2.47
2022-09-03T00:35:08.954Z,2.40
2022-09-03T00:38:11.053Z,2.55
2022-09-03T00:41:24.956Z,2.83
2022-09-03T00:45:14.453Z,2.55
2022-09-03T00:48:27.887Z,2.60
2022-09-03T00:51:55.495Z,2.40
2022-09-03T00:55:15.952Z,2.20
2022-09-03T00:58:27.038Z,2.60
2022-09-03T01:01:46.905Z,2.60
2022-09-03T01:04:55.588Z,2.63
2022-09-03T01:08:17.766Z,2.45
2022-09-03T01:11:47.964Z,2.70
2022-09-03T01:15:06.793Z,2.40
2022-09-03T01:18:26.766Z,2.40
2022-09-03T01:22:20.190Z,2.50
2022-09-03T01:25:43.249Z,2.45
2022-09-03T01:28:54.100Z,2.50
2022-09-03T01:32:11.202Z,2.58
2022-09-03T01:35:38.442Z,2.60
2022-09-03T01:38:53.153Z,2.60
2022-09-03T01:42:20.500Z,3.00
2022-09-03T01:45:28.888Z,3.08
2022-09-03T01:48:44.596Z,3.20
2022-09-03T01:51:46.951Z,2.80
2022-09-03T01:55:00.960Z,2.80
2022-09-03T01:58:29.771Z,2.80
2022-09-03T02:01:43.529Z,2.97
2022-09-03T02:04:58.817Z,3.15
2022-09-03T02:08:02.010Z,3.67
2022-09-03T02:11:06.758Z,3.07
2022-09-03T02:14:08.764Z,2.67
2022-09-03T02:17:11.443Z,2.58
2022-09-03T02:20:19.926Z,2.90
2022-09-03T02:23:27.568Z,2.53
2022-09-03T02:26:30.970Z,2.97
2022-09-03T02:29:32.981Z,2.60
2022-09-03T02:32:35.134Z,2.95
2022-09-03T02:35:37.239Z,3.30
2022-09-03T02:38:42.142Z,2.88
2022-09-03T02:41:44.182Z,2.83
2022-09-03T02:44:53.604Z,3.20
2022-09-03T02:47:59.692Z,2.80
2022-09-03T02:51:01.861Z,2.70
2022-09-03T02:54:20.774Z,2.53
2022-09-03T02:57:27.771Z,2.80
2022-09-03T03:00:30.010Z,2.92
2022-09-03T03:03:32.087Z,3.00
2022-09-03T03:06:34.212Z,3.00
2022-09-03T03:09:36.228Z,2.90
2022-09-03T03:12:38.280Z,2.70
2022-09-03T03:15:41.076Z,2.70
2022-09-03T03:18:43.267Z,2.80
2022-09-03T03:21:45.366Z,2.65
2022-09-03T03:24:47.399Z,2.60
2022-09-03T03:27:50.635Z,3.00
2022-09-03T03:30:52.743Z,3.00
2022-09-03T03:33:57.023Z,3.10
2022-09-03T03:36:59.126Z,2.72
2022-09-03T03:40:01.241Z,2.88
2022-09-03T03:43:03.330Z,2.72
2022-09-03T03:46:05.767Z,2.78
2022-09-03T03:49:08.900Z,2.53
2022-09-03T03:52:11.027Z,3.08
2022-09-03T03:55:13.117Z,2.75
2022-09-03T03:58:18.075Z,3.30
2022-09-03T04:01:25.502Z,2.60
2022-09-03T04:04:27.659Z,2.50
2022-09-03T04:07:29.745Z,2.80
2022-09-03T04:10:32.933Z,2.70
2022-09-03T04:13:36.888Z,2.83
2022-09-03T04:16:39.034Z,3.00
2022-09-03T04:19:41.092Z,2.65
2022-09-03T04:22:43.165Z,2.92
2022-09-03T04:25:52.698Z,2.90
2022-09-03T04:28:54.761Z,2.72
2022-09-03T04:31:57.054Z,2.75
2022-09-03T04:34:59.082Z,2.90
2022-09-03T04:38:01.104Z,2.67
2022-09-03T04:41:03.712Z,2.97
2022-09-03T04:44:05.780Z,2.70
2022-09-03T04:47:08.083Z,2.90
2022-09-03T04:50:10.246Z,2.70
2022-09-03T04:53:12.315Z,3.00
2022-09-03T04:56:21.013Z,3.10
2022-09-03T04:59:23.091Z,3.05
2022-09-03T05:02:25.226Z,2.85
2022-09-03T05:05:27.309Z,3.00
2022-09-03T05:08:29.312Z,2.75
2022-09-03T05:11:31.353Z,3.13
2022-09-03T05:14:33.386Z,2.78
2022-09-03T05:17:37.777Z,2.80
2022-09-03T05:20:39.934Z,2.92
2022-09-03T05:23:44.907Z,2.90
2022-09-03T05:26:46.944Z,2.90
2022-09-03T05:29:48.973Z,2.88
2022-09-03T05:32:50.969Z,3.17
2022-09-03T05:35:53.004Z,2.60
2022-09-03T05:38:55.338Z,2.63
2022-09-03T05:41:57.368Z,2.90
2022-09-03T05:44:59.362Z,2.90
2022-09-03T05:48:01.450Z,3.00
2022-09-03T05:51:06.514Z,2.65
2022-09-03T05:54:09.774Z,2.88
2022-09-03T05:57:11.743Z,2.60
2022-09-03T06:00:13.792Z,2.65
2022-09-03T06:03:15.887Z,2.70
2022-09-03T06:06:18.017Z,2.92
2022-09-03T06:09:23.111Z,2.75
2022-09-03T06:12:25.545Z,2.85
2022-09-03T06:15:27.567Z,2.88
2022-09-03T06:18:30.617Z,2.40
2022-09-03T06:21:32.704Z,2.75
2022-09-03T06:24:34.722Z,2.60
2022-09-03T06:27:36.729Z,2.60
2022-09-03T06:30:38.764Z,2.80
2022-09-03T06:33:41.654Z,2.53
2022-09-03T06:36:43.715Z,2.65
2022-09-03T06:39:45.786Z,2.58
2022-09-03T06:42:56.558Z,3.90
2022-09-03T06:46:01.627Z,7.10
2022-09-03T06:49:03.768Z,3.60
2022-09-03T06:52:05.813Z,2.72
2022-09-03T06:55:08.237Z,2.72
2022-09-03T06:58:10.241Z,2.30
2022-09-03T07:01:16.420Z,2.35
2022-09-03T07:04:20.049Z,2.40
2022-09-03T07:07:22.525Z,2.35
2022-09-03T07:10:24.656Z,2.00
2022-09-03T07:13:26.787Z,2.00
2022-09-03T07:16:35.010Z,1.80
2022-09-03T07:19:37.063Z,2.08
2022-09-03T07:22:39.066Z,1.90
2022-09-03T07:25:41.077Z,1.73
2022-09-03T07:28:44.165Z,2.10
2022-09-03T07:31:46.318Z,2.00
2022-09-03T07:34:48.379Z,1.90
2022-09-03T07:37:50.383Z,2.00
2022-09-03T07:40:58.150Z,2.17
2022-09-03T07:44:00.203Z,1.95
2022-09-03T07:47:02.274Z,2.10
2022-09-03T07:50:04.961Z,2.03
2022-09-03T07:53:06.969Z,2.13
2022-09-03T07:56:10.308Z,2.05
2022-09-03T08:02:14.194Z,2.00
2022-09-03T08:05:16.191Z,1.77
2022-09-03T08:08:18.253Z,1.83
2022-09-03T08:11:21.802Z,1.95
2022-09-03T08:14:23.823Z,1.80
2022-09-03T08:17:25.858Z,2.25
2022-09-03T08:20:28.205Z,1.75
2022-09-03T08:23:32.380Z,1.85
2022-09-03T08:26:36.922Z,1.90
2022-09-03T08:29:38.920Z,2.15
2022-09-03T08:32:40.949Z,2.25
2022-09-03T08:35:42.968Z,1.90
2022-09-03T08:38:46.328Z,1.70
2022-09-03T08:41:56.971Z,1.83
2022-09-03T08:45:02.637Z,1.80
2022-09-03T08:48:13.041Z,1.90
2022-09-03T08:51:16.717Z,1.70
2022-09-03T08:54:21.714Z,2.00
2022-09-03T08:57:25.327Z,1.90
2022-09-03T09:00:39.213Z,1.77
2022-09-03T09:04:12.204Z,1.77
2022-09-03T09:07:29.887Z,1.60
2022-09-03T09:10:59.699Z,2.00
2022-09-03T09:14:14.145Z,2.10
2022-09-03T09:17:19.046Z,1.60
2022-09-03T09:20:32.632Z,2.08
2022-09-03T09:23:47.475Z,1.70
2022-09-03T09:26:59.673Z,1.80
2022-09-03T09:30:05.391Z,1.65
2022-09-03T09:33:07.904Z,1.85
2022-09-03T09:36:12.531Z,2.10
2022-09-03T09:39:14.883Z,1.83
2022-09-03T09:42:21.474Z,1.73
2022-09-03T09:45:23.491Z,1.85
2022-09-03T09:48:31.384Z,1.90
2022-09-03T09:51:33.571Z,1.80
2022-09-03T09:54:35.617Z,2.07
2022-09-03T09:57:37.596Z,1.73
2022-09-03T10:00:39.659Z,1.80
2022-09-03T10:04:00.593Z,2.00
2022-09-03T10:07:20.058Z,1.90
2022-09-03T10:10:22.513Z,1.65
2022-09-03T10:13:30.145Z,1.80
2022-09-03T10:16:39.276Z,1.77
2022-09-03T10:20:14.226Z,2.00
2022-09-03T10:23:21.879Z,1.77
2022-09-03T10:26:24.366Z,2.05
2022-09-03T10:29:26.882Z,2.17
2022-09-03T10:32:48.596Z,2.05
2022-09-03T10:35:57.905Z,2.40
2022-09-03T10:39:13.620Z,1.88
2022-09-03T10:42:34.422Z,2.17
2022-09-03T10:46:05.430Z,2.15
2022-09-03T10:49:15.836Z,2.17
2022-09-03T10:52:35.617Z,2.00
2022-09-03T10:55:49.626Z,1.90
2022-09-03T10:59:16.162Z,1.80
2022-09-03T11:02:59.865Z,2.05
2022-09-03T11:09:25.419Z,1.95
2022-09-03T11:12:34.926Z,1.92
2022-09-03T11:15:50.955Z,1.80
2022-09-03T11:18:57.088Z,1.60
2022-09-03T11:21:59.596Z,1.90
2022-09-03T11:25:03.519Z,1.90
2022-09-03T11:28:21.296Z,1.70
2022-09-03T11:31:45.237Z,1.80
2022-09-03T11:34:54.785Z,1.75
2022-09-03T11:38:16.548Z,1.80
2022-09-03T11:41:27.536Z,1.75
2022-09-03T11:44:47.940Z,1.75
2022-09-03T11:47:54.178Z,1.50
2022-09-03T11:50:56.204Z,1.85
2022-09-03T11:54:04.104Z,1.75
2022-09-03T11:57:12.701Z,1.70
2022-09-03T12:00:17.711Z,1.65
2022-09-03T12:03:26.079Z,1.40
2022-09-03T12:06:49.281Z,1.83
2022-09-03T12:10:19.515Z,1.70
2022-09-03T12:13:24.572Z,1.60
2022-09-03T12:16:45.481Z,1.90
2022-09-03T12:19:54.184Z,1.75
2022-09-03T12:22:56.192Z,1.95
2022-09-03T12:26:05.922Z,1.35
2022-09-03T12:29:22.005Z,1.83
2022-09-03T12:32:24.687Z,1.80
2022-09-03T12:39:10.925Z,1.60
2022-09-03T12:42:20.023Z,1.40
2022-09-03T12:46:09.392Z,1.70
2022-09-03T12:55:47.205Z,1.60
2022-09-03T12:59:05.134Z,1.50
2022-09-03T13:02:25.517Z,1.70
2022-09-03T13:05:37.286Z,1.60
2022-09-03T13:08:46.378Z,1.70
2022-09-03T13:11:48.442Z,1.75
2022-09-03T13:14:50.676Z,1.80
2022-09-03T13:18:11.571Z,1.70
2022-09-03T13:21:31.774Z,1.80
2022-09-03T13:24:52.106Z,1.88
2022-09-03T13:27:59.770Z,2.00
2022-09-03T13:31:20.065Z,2.00
2022-09-03T13:34:33.396Z,1.50
2022-09-03T13:40:54.427Z,1.70
2022-09-03T13:44:06.765Z,1.70
2022-09-03T13:47:18.403Z,1.40
2022-09-03T13:50:24.720Z,1.65
2022-09-03T13:53:34.537Z,1.73
2022-09-03T13:56:48.368Z,1.63
2022-09-03T14:00:01.445Z,1.98
2022-09-03T14:03:22.002Z,1.77
2022-09-03T14:06:46.273Z,1.70
2022-09-03T14:10:03.637Z,2.00
2022-09-03T14:13:36.509Z,1.98
2022-09-03T14:16:48.460Z,2.07
2022-09-03T14:19:59.354Z,2.10
2022-09-03T14:23:42.699Z,1.67
2022-09-03T14:26:54.110Z,1.60
2022-09-03T14:30:05.563Z,1.70
2022-09-03T14:33:33.927Z,1.60
2022-09-03T14:36:50.736Z,1.63
2022-09-03T14:39:56.073Z,2.13
2022-09-03T14:43:10.601Z,1.77
2022-09-03T14:46:40.113Z,1.60
2022-09-03T14:49:53.852Z,1.70
2022-09-03T14:53:04.600Z,3.05
2022-09-03T14:56:06.562Z,2.10
2022-09-03T14:59:34.510Z,1.80
2022-09-03T15:03:03.682Z,1.60
2022-09-03T15:06:39.744Z,1.88
2022-09-03T15:10:19.428Z,2.03
2022-09-03T15:13:30.109Z,1.92
2022-09-03T15:16:34.849Z,1.92
2022-09-03T15:19:48.766Z,2.00
2022-09-03T15:23:40.089Z,1.75
2022-09-03T15:26:53.539Z,1.63
2022-09-03T15:33:40.189Z,1.52
2022-09-03T15:36:49.426Z,2.00
2022-09-03T15:40:28.412Z,2.03
2022-09-03T15:43:34.254Z,1.77
2022-09-03T15:46:45.410Z,1.85
2022-09-03T15:49:58.921Z,2.25
2022-09-03T15:53:24.843Z,1.70
2022-09-03T15:56:42.755Z,1.60
2022-09-03T16:00:00.968Z,1.92
2022-09-03T16:03:11.383Z,1.80
2022-09-03T16:06:47.737Z,1.95
2022-09-03T16:10:27.925Z,1.80
2022-09-03T16:14:00.876Z,2.00
2022-09-03T16:17:13.646Z,5.75
2022-09-03T16:20:30.997Z,3.90
2022-09-03T16:23:49.021Z,3.90
2022-09-03T16:27:05.380Z,7.78
2022-09-03T16:30:14.506Z,6.65
2022-09-03T16:33:41.766Z,3.08
2022-09-03T16:37:09.657Z,2.42
2022-09-03T16:40:26.933Z,2.00
2022-09-03T16:43:51.792Z,1.95
2022-09-03T16:47:12.033Z,2.28
2022-09-03T16:50:28.120Z,1.90
2022-09-03T16:53:51.390Z,1.98
2022-09-03T16:57:06.444Z,2.05
2022-09-03T17:00:14.893Z,1.90
2022-09-03T17:03:36.508Z,1.92
2022-09-03T17:07:12.585Z,2.00
2022-09-03T17:10:34.998Z,2.00
2022-09-03T17:13:48.425Z,2.10
2022-09-03T17:17:05.081Z,2.20
2022-09-03T17:20:33.403Z,2.10
2022-09-03T17:24:16.945Z,2.05
2022-09-03T17:27:27.960Z,2.40
2022-09-03T17:30:39.237Z,2.28
2022-09-03T17:33:57.464Z,2.00
2022-09-03T17:37:17.045Z,2.15
2022-09-03T17:40:33.093Z,2.08
2022-09-03T17:44:13.836Z,2.20
2022-09-03T17:47:34.540Z,2.50
2022-09-03T17:50:48.677Z,1.90
2022-09-03T17:53:55.278Z,2.50
2022-09-03T17:57:30.999Z,2.15
2022-09-03T18:00:41.876Z,2.30
2022-09-03T18:03:52.846Z,2.80
2022-09-03T18:07:10.723Z,2.97
2022-09-03T18:10:21.600Z,2.42
2022-09-03T18:13:45.603Z,2.50
2022-09-03T18:16:49.525Z,2.25
2022-09-03T18:20:05.118Z,2.60
2022-09-03T18:23:11.694Z,3.00
2022-09-03T18:26:24.147Z,3.17
2022-09-03T18:29:39.541Z,3.10
2022-09-03T18:32:43.347Z,3.33
2022-09-03T18:38:47.836Z,3.13
2022-09-03T18:42:07.083Z,3.40
2022-09-03T18:45:42.296Z,3.67
2022-09-03T18:49:06.497Z,3.95
2022-09-03T18:52:15.633Z,4.18
2022-09-03T18:55:26.983Z,3.80
2022-09-03T18:59:02.260Z,3.92
2022-09-03T19:02:14.782Z,4.63
2022-09-03T19:05:36.609Z,4.80
2022-09-03T19:08:51.213Z,4.40
2022-09-03T19:12:12.180Z,4.07
2022-09-03T19:15:25.426Z,4.70
2022-09-03T19:19:04.151Z,5.93
2022-09-03T19:22:09.738Z,5.43
2022-09-03T19:25:14.513Z,5.20
2022-09-03T19:28:21.562Z,5.00
2022-09-03T19:31:42.512Z,5.00
2022-09-03T19:35:08.788Z,6.90
2022-09-03T19:38:13.602Z,6.30
2022-09-03T19:41:29.930Z,6.05
2022-09-03T19:44:53.048Z,6.13
2022-09-03T19:48:19.939Z,5.75
2022-09-03T19:51:35.177Z,5.88
2022-09-03T19:54:38.689Z,5.88
2022-09-03T20:00:44.523Z,6.35
2022-09-03T20:03:46.605Z,6.13
2022-09-03T20:06:48.729Z,5.97
2022-09-03T20:09:52.385Z,6.72
2022-09-03T20:13:13.976Z,6.22
2022-09-03T20:16:34.332Z,7.05
2022-09-03T20:19:50.852Z,7.70
2022-09-03T20:23:19.857Z,7.78
2022-09-03T20:26:35.504Z,8.50
2022-09-03T20:29:57.825Z,8.43
2022-09-03T20:33:22.712Z,10.25
2022-09-03T20:36:39.601Z,11.10
2022-09-03T20:40:09.997Z,14.70
2022-09-03T20:43:47.323Z,9.60
2022-09-03T20:47:35.829Z,7.85
2022-09-03T20:50:53.608Z,7.32
2022-09-03T20:54:06.606Z,7.07
2022-09-03T20:57:27.229Z,6.95
2022-09-03T21:00:56.620Z,7.50
2022-09-03T21:04:26.106Z,7.10
2022-09-03T21:07:56.287Z,6.65
2022-09-03T21:11:05.383Z,6.82
2022-09-03T21:14:38.893Z,6.68
2022-09-03T21:18:04.877Z,7.30
2022-09-03T21:21:15.862Z,7.10
2022-09-03T21:24:20.226Z,7.35
2022-09-03T21:27:32.567Z,7.68
2022-09-03T21:30:38.614Z,9.15
2022-09-03T21:33:46.940Z,8.00
2022-09-03T21:36:49.174Z,8.95
2022-09-03T21:39:56.517Z,8.90
2022-09-03T21:43:29.614Z,8.93
2022-09-03T21:46:37.621Z,8.50
2022-09-03T21:50:16.825Z,9.35
2022-09-03T21:53:29.640Z,9.45
2022-09-03T21:56:56.502Z,11.57
2022-09-03T22:00:07.598Z,10.45
2022-09-03T22:03:14.478Z,10.25
2022-09-03T22:06:26.859Z,9.75
2022-09-03T22:09:35.269Z,11.43
2022-09-03T22:13:09.298Z,10.50
2022-09-03T22:16:17.333Z,10.85
2022-09-03T22:19:19.424Z,11.23
2022-09-03T22:22:45.475Z,11.05
2022-09-03T22:25:56.720Z,11.70
2022-09-03T22:29:11.425Z,11.80
2022-09-03T22:32:38.840Z,12.60
2022-09-03T22:36:08.552Z,12.98
2022-09-03T22:39:17.246Z,12.75
2022-09-03T22:42:27.937Z,12.43
2022-09-03T22:45:41.773Z,12.88
2022-09-03T22:49:01.180Z,13.32
2022-09-03T22:52:30.806Z,12.82
2022-09-03T22:55:34.433Z,13.40
2022-09-03T22:58:54.322Z,13.38
2022-09-03T23:02:08.375Z,13.05
2022-09-03T23:05:38.344Z,14.27
2022-09-03T23:08:58.690Z,14.43
2022-09-03T23:12:06.847Z,14.85
2022-09-03T23:15:14.067Z,14.32
2022-09-03T23:18:23.859Z,13.88
2022-09-03T23:21:34.840Z,13.20
2022-09-03T23:24:58.459Z,14.55
2022-09-03T23:28:08.573Z,15.00
2022-09-03T23:31:25.209Z,15.15
2022-09-03T23:34:27.543Z,15.73
2022-09-03T23:37:34.154Z,14.20
2022-09-03T23:40:49.064Z,16.45
2022-09-03T23:44:06.301Z,15.52
2022-09-03T23:47:36.067Z,14.23
2022-09-03T23:50:47.603Z,16.17
2022-09-03T23:54:01.708Z,17.05
2022-09-03T23:57:17.343Z,18.45
